Randolph, Kansas
Current Conditions -  °F | °C
As of 9:52 AM on Sunday 21 Dec 2014 (Local Time) from KMHK Reporting Station
Overcast Overcast  
Wind Chill: 36°   Ceiling: 1100
Heat Index: 42°   Visibility: 7mi
Dew Point: 38°   Wind: 12mph
Humidity: 85%   Direction: 190°S
Pressure: 29.93"   Gusts: NA
Location:  39.43°N, 96.76°W
Report Text: KMHK 211552Z 19010KT 7SM OVC011 06/03 A2993 RMK AO2 SLP142 T00560033
Loading
Personal Weather Stations






























Interactive Weather Map New forecast layout! Learn more

10-Day Weather Forecast

Advertisements
Track Severe Weather on mobile